MMGL/GDL METAR and TAF weather

Enter ICAO airport designator
Station Type Date Time Source
MMGL METAR 2020/01/23 17:55 UTC NOAA

MMGL 231755Z 13005KT 7SM BKN020 OVC100 18/09 A3019 RMK SLP128 52007 961 8/57/


Station Type Date Time Source
MMGL Decoded METAR 2020/01/23 17:55 UTC NOAA

Don Miguel / Guadalaj, Mexico (MMGL) 20-31N 103-19W
Jan 23, 2020 - 12:55 PM EST / 2020.01.23 1755 UTC
Wind: from the SE (130 degrees) at 6 MPH (5 KT):0
Visibility: 7 mile(s):0
Sky conditions: overcast
Temperature: 64 F (18 C)
Dew Point: 48 F (9 C)
Relative Humidity: 55%
Pressure (altimeter): 30.19 in. Hg (1022 hPa)
Pressure tendency: 0.02 inches (0.7 hPa) higher than three hours ago
ob: MMGL 231755Z 13005KT 7SM BKN020 OVC100 18/09 A3019 RMK SLP128 52007 961 8/57/
cycle: 18

Station Type Date Time Source
MMGL TAF 2020/01/23 18:57 UTC NOAA

TAF TAF MMGL 231654Z 2318/2424 22008KT P6SM SCT025 OVC100 TX25/2321Z TN14/2412Z
FM240400 00000KT 6SM HZ BKN020 BKN090 OVC240
FM241800 16006KT P6SM SCT025 BKN120 OVC260

Example: see airport list